Weather reports worldwide

Advertisment
Ploudalmezeau, France (7101): temperature & dewpoint: 18.06.2018 11:00:00 - 24.06.2018 11:00:00 (CEST)Ploudalmezeau, France (7101): wind speed: 18.06.2018 11:00:00 - 24.06.2018 11:00:00 (CEST)Ploudalmezeau, France (7101): wind direction: 18.06.2018 11:00:00 - 24.06.2018 11:00:00 (CEST)Ploudalmezeau, France (7101): reduced air pressure: 18.06.2018 11:00:00 - 24.06.2018 11:00:00 (CEST)Ploudalmezeau, France (7101): precipitation: 18.06.2018 11:00:00 - 24.06.2018 11:00:00 (CEST)
Date & Time tt [°C] td [°C] ff [km/h] ff [kn] dd ppp [hPa] rr [mm]
24.06.2018 11:00:00 21,2 10,4 16 8 E 1024,4 0,0
24.06.2018 10:00:00 19,8 9,7 14 8 E 1024,7 0,0
24.06.2018 09:00:00 17,4 11,2 11 6 E 1024,5 0,0
24.06.2018 08:00:00 14,1 11,6 13 7 E 1024,4 0,0
24.06.2018 07:00:00 11,3 11,0 9 5 ESE 1024,2 0,0
24.06.2018 06:00:00 10,1 9,3 3 1 ESE 1024,3 0,0
24.06.2018 05:00:00 11,2 10,7 10 5 ESE 1024,6 0,0
24.06.2018 04:00:00 11,4 10,8 7 4 ESE 1024,8 0,0
24.06.2018 03:00:00 11,3 10,7 9 5 E 1025,1 0,0
24.06.2018 02:00:00 11,0 9,6 9 5 E 1025,5 0,0
24.06.2018 01:00:00 12,5 9,7 11 6 ESE 1025,7 0,0
24.06.2018 00:00:00 12,8 9,6 11 6 E 1025,8 0,0
23.06.2018 23:00:00 14,0 9,2 13 7 E 1025,8 0,0
23.06.2018 22:00:00 15,7 8,9 17 9 E 1025,7 0,0
23.06.2018 21:00:00 17,0 8,9 21 12 E 1025,7 0,0
23.06.2018 20:00:00 18,5 7,9 24 13 E 1025,8 0,0
23.06.2018 19:00:00 19,8 9,7 19 10 ENE 1025,9 0,0
23.06.2018 18:00:00 20,9 11,0 22 12 ENE 1026,2 0,0
23.06.2018 17:00:00 19,8 11,6 22 12 ENE 1026,7 0,0
23.06.2018 16:00:00 20,5 11,7 24 13 ENE 1027,0 0,0
23.06.2018 15:00:00 20,6 13,1 19 10 NE 1027,6 0,0
23.06.2018 14:00:00 20,7 13,6 19 11 NE 1028,1 0,0
23.06.2018 13:00:00 20,3 14,0 18 10 NE 1028,4 0,0
23.06.2018 12:00:00 20,3 13,7 16 9 NE 1028,4 0,0
23.06.2018 11:00:00 20,6 11,5 9 5 SE 1028,5 0,0
23.06.2018 10:00:00 18,1 11,6 12 7 SE 1028,8 0,0
23.06.2018 09:00:00 15,0 12,1 11 6 ESE 1028,8 0,0
23.06.2018 08:00:00 12,5 12,2 11 6 ESE 1029,3 0,0
23.06.2018 07:00:00 9,8 9,7 8 5 E 1029,1 0,2
23.06.2018 06:00:00 8,3 8,0 5 3 E 1029,0 0,0
23.06.2018 05:00:00 9,0 8,7 7 4 E 1028,8 0,0
23.06.2018 04:00:00 8,6 8,2 8 4 E 1029,1 0,0
23.06.2018 03:00:00 9,8 9,0 5 3 E 1029,1 0,0
23.06.2018 02:00:00 10,4 9,8 9 5 E 1029,4 0,0
23.06.2018 01:00:00 9,6 9,0 8 4 E 1029,8 0,0
23.06.2018 00:00:00 10,5 9,1 8 4 E 1029,9 0,0
22.06.2018 23:00:00 11,2 9,5 10 5 E 1029,6 0,0
22.06.2018 22:00:00 12,7 9,3 18 10 ENE 1029,3 0,0
22.06.2018 21:00:00 14,1 7,8 18 10 ENE 1029,6 0,0
22.06.2018 20:00:00 14,6 9,2 23 12 ENE 1029,9 0,0
22.06.2018 19:00:00 15,4 9,5 22 12 NE 1029,9 0,0
22.06.2018 18:00:00 15,8 9,2 23 12 NE 1030,3 0,0
22.06.2018 17:00:00 16,9 10,5 21 12 NE 1030,6 0,0
22.06.2018 16:00:00 17,4 10,7 22 12 NE 1030,7 0,0
22.06.2018 15:00:00 17,6 10,9 22 12 NE 1030,8 0,0
22.06.2018 14:00:00 16,7 11,4 26 14 NE 1030,9 0,0
22.06.2018 13:00:00 18,4 11,9 20 11 NE 1031,0 0,0
22.06.2018 12:00:00 18,4 11,9 17 9 ENE 1030,8 0,0
22.06.2018 11:00:00 17,9 10,8 14 8 E 1031,0 0,0
22.06.2018 10:00:00 16,8 11,3 17 9 E 1031,0 0,0
22.06.2018 09:00:00 15,4 11,6 17 9 E 1030,9 0,0
22.06.2018 08:00:00 13,6 11,5 13 7 E 1030,8 0,0
22.06.2018 07:00:00 10,3 9,7 8 4 E 1030,6 0,2
22.06.2018 06:00:00 10,0 9,2 9 5 E 1030,3 0,0
22.06.2018 05:00:00 11,5 10,1 10 5 E 1030,1 0,0
22.06.2018 04:00:00 12,1 11,2 11 6 ENE 1030,1 0,0
22.06.2018 03:00:00 12,3 11,2 13 7 ENE 1029,9 0,0
22.06.2018 02:00:00 12,1 11,0 12 6 ENE 1029,8 0,0
22.06.2018 01:00:00 11,7 11,1 11 6 NE 1029,7 0,0
22.06.2018 00:00:00 11,0 9,4 9 5 NE 1029,9 0,0
21.06.2018 23:00:00 11,7 8,5 12 7 ENE 1029,6 0,0
21.06.2018 22:00:00 12,8 8,3 14 8 ENE 1029,0 0,0
21.06.2018 21:00:00 13,8 8,6 20 11 ENE 1028,9 0,0
21.06.2018 20:00:00 14,9 8,1 22 12 ENE 1028,6 0,0
21.06.2018 19:00:00 15,2 8,4 22 12 NE 1028,7 0,0
21.06.2018 18:00:00 15,7 7,7 26 14 NE 1028,8 0,0
21.06.2018 17:00:00 15,8 8,8 28 15 NE 1028,7 0,0
21.06.2018 16:00:00 16,1 10,0 27 14 NE 1028,5 0,0
21.06.2018 15:00:00 16,2 9,8 26 14 NE 1028,3 0,0
21.06.2018 14:00:00 15,7 9,6 31 17 NE 1027,9 0,0
21.06.2018 13:00:00 16,0 10,7 27 14 NE 1027,4 0,0
21.06.2018 12:00:00 15,9 9,6 27 15 NE 1027,2 0,0
21.06.2018 11:00:00 15,2 8,7 30 16 NE 1027,1 0,0
21.06.2018 10:00:00 15,0 9,4 29 15 NE 1026,8 0,0
21.06.2018 09:00:00 14,6 10,4 26 14 NE 1026,5 0,0
21.06.2018 08:00:00 13,9 11,1 19 10 NE 1025,9 0,0
21.06.2018 07:00:00 12,7 11,1 20 11 NE 1025,4 0,0
21.06.2018 06:00:00 12,5 11,9 16 9 NE 1025,0 0,0
21.06.2018 05:00:00 12,6 12,0 14 8 NE 1024,7 0,0
21.06.2018 04:00:00 12,9 12,3 14 8 NE 1024,5 0,0
21.06.2018 03:00:00 13,9 13,3 15 8 NNE 1024,3 0,0
21.06.2018 02:00:00 14,0 13,4 10 5 NNE 1024,2 0,0
21.06.2018 01:00:00 14,2 13,9 10 5 N 1024,2 0,0
21.06.2018 00:00:00 14,3 14,1 10 6 N 1024,2 0,0
20.06.2018 23:00:00 15,0 14,8 8 5 N 1024,1 0,2
20.06.2018 22:00:00 14,7 14,4 10 5 N 1023,3 0,0
20.06.2018 21:00:00 14,5 14,2 7 4 NNE 1022,8 0,0
20.06.2018 20:00:00 14,5 13,7 10 5 N 1022,8 0,0
20.06.2018 19:00:00 15,8 14,2 10 5 NNE 1022,7 0,0
20.06.2018 18:00:00 16,2 14,2 10 5 NE 1022,7 0,0
20.06.2018 17:00:00 15,1 13,8 16 9 NNE 1023,0 0,0
20.06.2018 16:00:00 16,8 14,4 10 6 NNE 1022,8 0,0
20.06.2018 15:00:00 17,4 14,5 10 5 NNE 1023,0 0,0
20.06.2018 14:00:00 17,4 15,0 7 4 NE 1023,1 0,0
20.06.2018 13:00:00 17,0 14,8 8 4 NNE 1023,3 0,0
20.06.2018 12:00:00 16,3 15,3 5 3 NE 1023,2 0,0
20.06.2018 11:00:00 15,1 14,8 5 3 NE 1023,1 0,0
20.06.2018 10:00:00 14,2 14,0 8 4 N 1023,2 0,0
20.06.2018 09:00:00 14,3 14,1 8 4 N 1023,3 0,0
20.06.2018 08:00:00 14,7 14,5 5 3 N 1023,1 0,0
20.06.2018 07:00:00 14,6 14,4 0 0 N 1022,8 0,0
20.06.2018 06:00:00 14,5 14,3 0 0 N 1023,0 0,0
20.06.2018 05:00:00 14,5 14,3 7 4 ESE 1022,9 0,0
20.06.2018 04:00:00 14,4 14,2 6 4 ENE 1023,2 0,0
20.06.2018 03:00:00 14,5 14,3 6 4 E 1023,5 0,0
20.06.2018 02:00:00 14,5 14,3 6 3 E 1023,9 0,0
20.06.2018 01:00:00 14,6 14,4 6 3 ENE 1024,4 0,0
20.06.2018 00:00:00 14,8 14,5 8 4 NE 1024,7 0,0
19.06.2018 23:00:00 14,9 14,6 5 3 NE 1024,7 0,0
19.06.2018 22:00:00 15,2 14,2 5 3 NE 1024,5 0,0
19.06.2018 21:00:00 17,4 15,0 7 4 NW 1024,4 0,0
19.06.2018 20:00:00 17,9 15,2 11 6 NW 1024,5 0,0
19.06.2018 19:00:00 18,5 15,6 13 7 NW 1024,9 0,0
19.06.2018 18:00:00 18,2 15,6 13 7 WNW 1025,6 0,0
19.06.2018 17:00:00 18,8 15,8 12 7 W 1025,9 0,0
19.06.2018 16:00:00 18,0 15,8 13 7 W 1026,2 0,0
19.06.2018 15:00:00 18,2 15,6 13 7 W 1026,2 0,0
19.06.2018 14:00:00 18,0 15,8 11 6 W 1026,5 0,0
19.06.2018 13:00:00 17,1 16,0 13 7 NW 1026,7 0,0
19.06.2018 12:00:00 17,8 16,0 8 4 W 1026,6 0,0
19.06.2018 11:00:00 17,1 16,0 7 4 W 1026,8 0,0
19.06.2018 10:00:00 16,8 16,3 6 3 W 1026,8 0,0
19.06.2018 09:00:00 16,2 15,9 6 3 SW 1026,7 0,0
19.06.2018 08:00:00 15,8 15,6 6 3 WSW 1026,5 0,0
19.06.2018 07:00:00 15,4 15,2 6 4 WSW 1026,2 0,0
19.06.2018 06:00:00 15,3 15,1 6 3 WSW 1026,1 0,0
19.06.2018 05:00:00 15,4 15,2 7 4 WSW 1025,9 0,0
19.06.2018 04:00:00 15,2 15,0 10 5 W 1026,0 0,0
19.06.2018 03:00:00 15,2 15,0 12 7 W 1026,3 0,0
19.06.2018 02:00:00 15,1 14,9 11 6 WSW 1026,5 0,0
19.06.2018 01:00:00 14,9 14,7 11 6 WSW 1026,6 0,0
19.06.2018 00:00:00 14,9 14,7 11 6 WSW 1026,9 0,0
18.06.2018 23:00:00 14,8 14,6 12 6 WSW 1026,8 0,0
18.06.2018 22:00:00 15,0 14,8 13 7 W 1026,5 0,0
18.06.2018 21:00:00 15,3 15,0 14 8 W 1025,9 0,0
18.06.2018 20:00:00 15,6 15,3 17 9 W 1025,9 0,0
18.06.2018 19:00:00 16,2 15,4 14 8 WSW 1025,9 0,0
18.06.2018 18:00:00 16,5 15,5 19 10 WSW 1025,7 0,0
18.06.2018 17:00:00 17,6 15,2 18 10 WSW 1025,8 0,0
18.06.2018 16:00:00 17,9 15,3 17 9 WSW 1025,7 0,0
18.06.2018 15:00:00 17,4 15,0 19 11 W 1025,7 0,0
18.06.2018 14:00:00 17,8 15,4 16 8 WSW 1025,3 0,0
18.06.2018 13:00:00 18,1 16,3 13 7 W 1025,5 0,0
18.06.2018 12:00:00 16,2 14,7 12 6 WNW 1025,3 0,0
18.06.2018 11:00:00 16,5 13,8 15 8 WNW 1025,1 0,0

tt = temperature
td = dewpoint
ff = wind speed
dd = wind direction
ppp = reduced air pressure
rr = precipitation

Next stations